San Anselmo, CA

5:24 AM PST on December 20, 2014 (GMT -0800)
Napa County | Change Station
CLOSE
Current Station
Airport
Location: Napa County,
Elevation: 33 ft
Nearby Weather Stations
Active Advisory: Coastal Flood Advisory Active Notice: Public Information Statement

Elev 33 ft 38.21 °N, 122.28 °W | Updated 6 minutes ago

Overcast
Overcast
52 °F
Feels Like 52 °F
N
0
Wind Variable Wind from North

Today
High -- | Low -- °F
--% Chance of Precip.
Yesterday
High -- | Low -- °F
Precip. -- in
7:21 AM 4:53 PM
Waning Crescent, 3% visible
Pressure 30.14 in
Visibility 1.5 miles
Clouds Mostly Cloudy 900 ft
Mostly Cloudy 1400 ft
Overcast 11000 ft
Dew Point 52 °F
Humidity 100%
Rainfall 0.00 in
Snow Depth Not available.
UV 0 out of 12
Pollen 4.00 out of 12
Air Quality Not available.
Flu Activity Not available.
SPECI KAPC 201318Z AUTO 00000KT 1 1/2SM BR BKN009 BKN014 OVC110 11/11 A3014 RMK AO2 T01110111

More Conditions Fewer Conditions

Pressure 30.14 in
Visibility 1.5 miles
Clouds Mostly Cloudy 900 ft
Mostly Cloudy 1400 ft
Overcast 11000 ft
Dew Point 52 °F
Humidity 100%
Rainfall 0.00 in
Snow Depth Not available.
UV 0 out of 12
Pollen 4.00 out of 12
Air Quality Not available.
Flu Activity Not available.
SPECI KAPC 201318Z AUTO 00000KT 1 1/2SM BR BKN009 BKN014 OVC110 11/11 A3014 RMK AO2 T01110111

More Conditions Fewer Conditions

10-Day Weather Forecast

Almanac

Astronomy

Dec. 20, 2014 Rise Set
Actual Time
Civil Twilight
Nautical Twilight
Astronomical Twilight
Moon
Length of Visible Light
Length of Day
Tomorrow will be .
, % of the Moon is Illuminated

Today's Extremes

State Highs State Lows

Community

WunderPhotos

Upload Photos

1,779,169 photos uploaded!

WunderBlogs® & News

Nearby

Air Quality

  Air Quality AQ Index Pollutant
Not available.

Snow Depth

Station Depth Elevation

Earthquake Activity

City Distance Mag. Time & Date
Minimum magnitude displayed is 2.5.

Coastal Water Temperatures

Place Temperature

Nearby Weather Stations